Time;durP1;ratioP1;P1;durP2;ratioP2;P2;SDS_P1;SDS_P2;PMS_P1;PMS_P2;Temp;Humidity;BMP_temperature;BMP_pressure;BME280_temperature;BME280_humidity;BME280_pressure;Samples;Min_cycle;Max_cycle;Signal;HPM_P1;HPM_P2
2023/08/24 00:00:45;;;;;;;19.90;14.93;;;;;;;17.98;100.00;101680.94;5035868;28;20492;-66
2023/08/24 00:03:10;;;;;;;19.40;14.35;;;;;;;18.01;100.00;101680.25;5035906;28;20079;-66
2023/08/24 00:05:36;;;;;;;21.10;15.18;;;;;;;17.96;100.00;101677.66;5034260;28;20022;-66
2023/08/24 00:08:04;;;;;;;20.13;14.32;;;;;;;17.94;100.00;101671.53;5052432;28;20126;-66
2023/08/24 00:10:29;;;;;;;20.67;14.23;;;;;;;17.90;100.00;101670.56;5053179;28;20029;-66
2023/08/24 00:12:54;;;;;;;20.05;14.70;;;;;;;17.87;100.00;101660.84;5044370;28;20086;-66
2023/08/24 00:15:20;;;;;;;20.23;14.95;;;;;;;17.85;100.00;101671.59;5046106;28;20382;-66
2023/08/24 00:17:45;;;;;;;19.75;14.63;;;;;;;17.86;100.00;101664.81;5036690;28;20033;-66
2023/08/24 00:20:11;;;;;;;22.75;14.93;;;;;;;17.85;100.00;101676.34;5038382;28;20366;-66
2023/08/24 00:22:38;;;;;;;21.50;15.02;;;;;;;17.78;100.00;101676.84;5051558;28;20036;-66
2023/08/24 00:25:05;;;;;;;22.00;14.57;;;;;;;17.74;100.00;101681.50;5033029;28;20083;-66
2023/08/24 00:27:30;;;;;;;20.45;14.45;;;;;;;17.77;100.00;101689.19;5050491;28;20112;-66
2023/08/24 00:29:55;;;;;;;21.42;14.98;;;;;;;17.74;100.00;101684.28;5037680;28;20461;-66
2023/08/24 00:32:22;;;;;;;21.23;15.43;;;;;;;17.70;100.00;101672.97;5051707;28;20113;-66
2023/08/24 00:34:48;;;;;;;20.15;15.10;;;;;;;17.66;100.00;101669.16;5044199;28;20018;-67
2023/08/24 00:37:13;;;;;;;20.67;15.15;;;;;;;17.64;100.00;101659.47;5052741;28;20040;-66
2023/08/24 00:39:38;;;;;;;20.50;15.35;;;;;;;17.57;100.00;101660.00;5044922;28;20098;-66
2023/08/24 00:42:04;;;;;;;22.17;15.52;;;;;;;17.57;100.00;101671.19;5032644;28;20767;-66
2023/08/24 00:44:29;;;;;;;19.95;15.13;;;;;;;17.53;100.00;101665.44;5033291;28;20059;-66
2023/08/24 00:46:54;;;;;;;21.05;14.95;;;;;;;17.53;100.00;101665.44;5032540;28;20415;-67
2023/08/24 00:49:21;;;;;;;21.05;15.07;;;;;;;17.51;100.00;101666.94;5031232;28;20040;-66
2023/08/24 00:51:46;;;;;;;21.13;15.15;;;;;;;17.48;100.00;101670.38;5044412;28;20029;-66
2023/08/24 00:54:12;;;;;;;21.65;15.77;;;;;;;17.48;100.00;101667.59;5052498;28;20025;-66
2023/08/24 00:56:37;;;;;;;21.67;15.80;;;;;;;17.49;100.00;101661.66;5050444;28;20415;-66
2023/08/24 00:59:02;;;;;;;21.30;16.02;;;;;;;17.44;100.00;101654.25;5046815;28;20036;-66
2023/08/24 01:01:28;;;;;;;22.40;15.82;;;;;;;17.35;100.00;101642.28;5040702;28;20048;-66
2023/08/24 01:03:53;;;;;;;22.48;16.33;;;;;;;17.30;100.00;101656.44;5046414;28;20070;-66
2023/08/24 01:06:19;;;;;;;21.48;16.67;;;;;;;17.29;100.00;101646.41;5050699;28;20025;-66
2023/08/24 01:08:44;;;;;;;20.35;16.10;;;;;;;17.25;100.00;101653.81;5038572;28;20033;-67
2023/08/24 01:11:32;;;;;;;22.52;16.05;;;;;;;17.30;100.00;101651.66;5037195;28;20469;-66
2023/08/24 01:14:09;;;;;;;21.08;16.00;;;;;;;17.34;100.00;101651.81;5037681;28;20053;-67
2023/08/24 01:16:40;;;;;;;20.70;15.65;;;;;;;17.33;100.00;101647.41;5047434;28;20045;-66
2023/08/24 01:19:07;;;;;;;22.63;15.85;;;;;;;17.34;100.00;101646.22;5032157;28;20124;-66
2023/08/24 01:21:33;;;;;;;21.02;15.95;;;;;;;17.38;100.00;101632.41;5031872;28;20029;-67
2023/08/24 01:24:13;;;;;;;21.23;15.98;;;;;;;17.41;100.00;101635.38;5042370;28;20070;-66
2023/08/24 01:26:41;;;;;;;21.00;15.88;;;;;;;17.40;100.00;101644.91;5050377;28;20028;-66
2023/08/24 01:29:07;;;;;;;20.92;16.38;;;;;;;17.44;100.00;101657.06;5047800;28;20032;-66
2023/08/24 01:31:32;;;;;;;21.15;16.40;;;;;;;17.45;100.00;101639.13;5042452;28;20136;-66
2023/08/24 01:33:58;;;;;;;23.10;17.25;;;;;;;17.49;100.00;101630.88;5040480;28;20047;-66
2023/08/24 01:36:24;;;;;;;21.83;16.00;;;;;;;17.42;100.00;101620.22;5034830;28;20022;-65
2023/08/24 01:39:30;;;;;;;24.02;16.83;;;;;;;17.48;100.00;101620.03;5031881;28;20030;-66
2023/08/24 01:42:02;;;;;;;22.63;16.50;;;;;;;17.48;100.00;101628.44;5046989;28;20091;-66
2023/08/24 01:44:29;;;;;;;23.02;17.20;;;;;;;17.48;100.00;101626.44;5031707;28;20034;-65
2023/08/24 01:46:56;;;;;;;21.98;16.95;;;;;;;17.47;100.00;101638.81;5035565;28;20025;-65
2023/08/24 01:49:22;;;;;;;23.73;16.50;;;;;;;17.46;100.00;101642.75;5044098;28;20025;-66
2023/08/24 01:51:48;;;;;;;23.38;16.65;;;;;;;17.48;100.00;101648.81;5045859;28;20107;-66
2023/08/24 01:54:14;;;;;;;23.02;16.90;;;;;;;17.46;100.00;101632.38;5051386;28;20033;-66
2023/08/24 01:56:39;;;;;;;21.00;16.70;;;;;;;17.50;100.00;101642.91;5037781;28;20075;-67
2023/08/24 01:59:04;;;;;;;23.55;17.08;;;;;;;17.45;100.00;101636.31;5040431;28;20111;-67
2023/08/24 02:01:30;;;;;;;22.90;16.70;;;;;;;17.46;100.00;101631.56;5038120;28;20059;-65
2023/08/24 02:03:55;;;;;;;22.17;17.48;;;;;;;17.47;100.00;101638.81;5034033;28;20060;-66
2023/08/24 02:06:21;;;;;;;22.70;17.30;;;;;;;17.48;100.00;101650.81;5033727;28;20108;-66
2023/08/24 02:08:47;;;;;;;22.13;17.08;;;;;;;17.46;100.00;101663.16;5037829;28;20029;-65
2023/08/24 02:11:12;;;;;;;22.02;16.67;;;;;;;17.47;100.00;101647.19;5042644;28;20021;-66
2023/08/24 02:13:37;;;;;;;22.83;17.05;;;;;;;17.50;100.00;101646.50;5030645;28;20037;-66
2023/08/24 02:16:08;;;;;;;22.63;16.85;;;;;;;17.53;100.00;101637.47;5030828;28;20042;-66
2023/08/24 02:18:34;;;;;;;22.75;16.33;;;;;;;17.53;100.00;101629.06;5032174;28;20048;-65
2023/08/24 02:20:59;;;;;;;24.15;16.95;;;;;;;17.52;100.00;101619.03;5031172;28;20043;-66
2023/08/24 02:23:24;;;;;;;24.02;17.92;;;;;;;17.53;100.00;101625.44;5031270;28;20261;-65
2023/08/24 02:25:50;;;;;;;24.13;16.98;;;;;;;17.53;100.00;101634.66;5034938;28;20033;-66
2023/08/24 02:28:15;;;;;;;21.65;17.13;;;;;;;17.50;100.00;101649.31;5031706;28;20040;-65
2023/08/24 02:30:40;;;;;;;22.80;17.27;;;;;;;17.48;100.00;101640.41;5031695;28;20516;-65
2023/08/24 02:33:06;;;;;;;24.05;17.25;;;;;;;17.48;100.00;101637.63;5048129;28;20067;-66
2023/08/24 02:35:31;;;;;;;23.23;17.02;;;;;;;17.46;100.00;101628.78;5049750;28;20102;-65
2023/08/24 02:37:57;;;;;;;23.42;17.15;;;;;;;17.44;100.00;101626.28;5033062;28;20091;-65
2023/08/24 02:40:23;;;;;;;25.17;16.65;;;;;;;17.48;100.00;101632.03;5039913;28;20401;-65
2023/08/24 02:42:48;;;;;;;22.52;16.08;;;;;;;17.51;100.00;101634.16;5030552;28;20483;-65
2023/08/24 02:45:13;;;;;;;24.00;16.98;;;;;;;17.50;100.00;101620.53;5048300;28;20022;-65
2023/08/24 02:47:39;;;;;;;23.55;16.63;;;;;;;17.50;100.00;101604.56;5037436;28;20130;-65
2023/08/24 02:50:06;;;;;;;22.70;16.75;;;;;;;17.54;100.00;101591.56;5036496;28;20106;-65
2023/08/24 02:52:32;;;;;;;22.73;16.77;;;;;;;17.56;100.00;101594.84;5039798;28;20033;-65
2023/08/24 02:54:58;;;;;;;26.98;17.73;;;;;;;17.53;100.00;101586.28;5030791;28;20038;-65
2023/08/24 02:57:23;;;;;;;24.50;17.63;;;;;;;17.59;100.00;101585.75;5042021;28;20021;-64
2023/08/24 02:59:48;;;;;;;22.98;16.95;;;;;;;17.59;100.00;101580.16;5030486;28;20029;-64
2023/08/24 03:02:14;;;;;;;24.58;17.70;;;;;;;17.59;100.00;101568.16;5033338;28;20024;-64
2023/08/24 03:04:39;;;;;;;26.55;18.02;;;;;;;17.58;100.00;101558.94;5031079;28;20072;-65
2023/08/24 03:07:07;;;;;;;23.50;17.92;;;;;;;17.54;100.00;101541.19;5042567;28;20017;-64
2023/08/24 03:09:34;;;;;;;25.48;18.20;;;;;;;17.51;100.00;101527.88;5036416;28;20034;-65
2023/08/24 03:11:59;;;;;;;23.58;17.45;;;;;;;17.49;100.00;101512.59;5047394;28;20120;-64
2023/08/24 03:14:24;;;;;;;23.58;17.92;;;;;;;17.45;100.00;101501.25;5030434;28;20132;-64
2023/08/24 03:16:50;;;;;;;22.65;17.50;;;;;;;17.42;100.00;101474.78;5035331;28;20037;-64
2023/08/24 03:19:17;;;;;;;23.33;18.92;;;;;;;17.38;100.00;101462.63;5036123;28;20056;-64
2023/08/24 03:21:43;;;;;;;23.70;18.77;;;;;;;17.35;100.00;101470.88;5030419;28;20497;-65
2023/08/24 03:24:08;;;;;;;24.92;19.15;;;;;;;17.31;100.00;101460.34;5030472;28;20068;-64
2023/08/24 03:26:34;;;;;;;25.25;19.35;;;;;;;17.32;100.00;101466.78;5037022;28;20087;-64
2023/08/24 03:28:59;;;;;;;24.65;20.75;;;;;;;17.34;100.00;101472.03;5030809;28;20396;-64
2023/08/24 03:31:25;;;;;;;25.58;21.25;;;;;;;17.33;100.00;101462.00;5034237;28;20040;-65
2023/08/24 03:33:51;;;;;;;29.40;21.73;;;;;;;17.33;100.00;101454.44;5037029;28;20391;-65
2023/08/24 03:36:16;;;;;;;26.95;21.60;;;;;;;17.33;100.00;101445.22;5032655;28;20034;-65
2023/08/24 03:38:42;;;;;;;27.52;22.30;;;;;;;17.26;100.00;101451.34;5039271;28;20544;-66
2023/08/24 03:41:07;;;;;;;27.98;22.50;;;;;;;17.28;100.00;101449.03;5050428;28;20025;-65
2023/08/24 03:43:35;;;;;;;26.75;21.70;;;;;;;17.29;100.00;101451.47;5032921;28;20038;-65
2023/08/24 03:46:01;;;;;;;26.58;21.67;;;;;;;17.28;100.00;101449.88;5030442;28;20128;-66
2023/08/24 03:48:27;;;;;;;27.42;22.23;;;;;;;17.29;100.00;101454.28;5035935;28;20108;-66
2023/08/24 03:50:57;;;;;;;29.25;22.63;;;;;;;17.24;100.00;101450.88;5046740;28;20107;-65
2023/08/24 03:53:23;;;;;;;28.23;23.08;;;;;;;17.22;100.00;101461.56;5040272;28;20083;-65
2023/08/24 03:55:49;;;;;;;28.13;23.63;;;;;;;17.15;100.00;101457.31;5042119;28;20041;-66
2023/08/24 03:58:15;;;;;;;29.40;23.48;;;;;;;17.13;100.00;101464.41;5033687;28;20137;-65
2023/08/24 04:00:41;;;;;;;30.48;21.98;;;;;;;17.12;100.00;101471.97;5034883;28;20029;-65
2023/08/24 04:03:07;;;;;;;30.05;23.35;;;;;;;17.11;100.00;101477.88;5038787;28;20049;-66
2023/08/24 04:05:33;;;;;;;26.85;23.55;;;;;;;17.10;100.00;101470.66;5051774;28;20029;-65
2023/08/24 04:08:00;;;;;;;28.27;23.27;;;;;;;17.13;100.00;101473.63;5034712;28;20112;-65
2023/08/24 04:10:25;;;;;;;27.45;23.02;;;;;;;17.12;100.00;101466.38;5034430;28;20102;-65
2023/08/24 04:12:51;;;;;;;28.58;23.90;;;;;;;17.12;100.00;101471.97;5033646;28;20433;-65
2023/08/24 04:15:16;;;;;;;30.48;24.00;;;;;;;17.09;100.00;101475.44;5033193;28;20445;-65
2023/08/24 04:17:41;;;;;;;28.90;22.92;;;;;;;17.09;100.00;101469.03;5039747;28;20033;-65
2023/08/24 04:20:07;;;;;;;29.02;23.50;;;;;;;17.11;100.00;101461.94;5033288;28;20034;-65
2023/08/24 04:22:33;;;;;;;29.58;23.92;;;;;;;17.11;100.00;101456.38;5043053;28;20035;-65
2023/08/24 04:24:58;;;;;;;30.70;23.98;;;;;;;17.14;100.00;101463.25;5036949;28;20038;-65
2023/08/24 04:27:24;;;;;;;30.95;24.02;;;;;;;17.13;100.00;101464.41;5043097;28;20033;-67
2023/08/24 04:29:49;;;;;;;33.53;25.00;;;;;;;17.12;100.00;101465.56;5033137;28;20053;-65
2023/08/24 04:32:15;;;;;;;29.52;24.52;;;;;;;17.13;100.00;101467.19;5032941;28;20400;-67
2023/08/24 04:34:40;;;;;;;29.77;24.05;;;;;;;17.14;100.00;101466.84;5050807;28;20123;-65
2023/08/24 04:37:06;;;;;;;30.38;24.77;;;;;;;17.18;100.00;101463.38;5035967;28;20158;-65
2023/08/24 04:39:32;;;;;;;30.13;24.15;;;;;;;17.21;100.00;101459.94;5033344;28;20045;-65
2023/08/24 04:41:57;;;;;;;29.25;24.25;;;;;;;17.19;100.00;101456.66;5032563;28;20037;-65
2023/08/24 04:44:24;;;;;;;28.73;23.75;;;;;;;17.18;100.00;101455.84;5036652;28;20025;-66
2023/08/24 04:46:49;;;;;;;27.65;23.42;;;;;;;17.21;100.00;101454.34;5035072;28;20056;-66
2023/08/24 04:49:15;;;;;;;28.63;23.83;;;;;;;17.21;100.00;101443.97;5035827;28;20037;-65
2023/08/24 04:51:40;;;;;;;30.00;24.27;;;;;;;17.20;100.00;101456.31;5034436;28;20026;-65
2023/08/24 04:54:05;;;;;;;30.70;24.83;;;;;;;17.17;100.00;101453.38;5032343;28;20040;-65
2023/08/24 04:56:31;;;;;;;29.42;24.67;;;;;;;17.17;100.00;101457.00;5056059;28;20029;-65
2023/08/24 04:58:57;;;;;;;30.85;25.65;;;;;;;17.15;100.00;101460.09;5032142;28;20022;-65
2023/08/24 05:01:24;;;;;;;28.92;25.55;;;;;;;17.10;100.00;101465.06;5042148;28;20033;-65
2023/08/24 05:03:51;;;;;;;32.28;25.98;;;;;;;17.05;100.00;101457.69;5037287;28;20025;-65
2023/08/24 05:06:16;;;;;;;31.15;25.35;;;;;;;17.02;100.00;101463.13;5046881;28;20033;-66
2023/08/24 05:08:41;;;;;;;31.33;25.77;;;;;;;16.97;100.00;101467.75;5037319;28;20091;-65
2023/08/24 05:11:16;;;;;;;29.95;25.75;;;;;;;16.95;100.00;101470.06;5035749;28;20384;-65
2023/08/24 05:13:41;;;;;;;29.95;25.58;;;;;;;16.96;100.00;101459.69;5032341;28;20053;-65
2023/08/24 05:16:07;;;;;;;32.75;25.45;;;;;;;16.98;100.00;101457.41;5041029;28;20108;-65
2023/08/24 05:18:35;;;;;;;32.50;25.83;;;;;;;17.04;100.00;101466.41;5033485;28;20531;-65
2023/08/24 05:21:00;;;;;;;30.00;25.40;;;;;;;17.07;100.00;101462.97;5049155;28;20041;-66
2023/08/24 05:23:26;;;;;;;30.02;25.55;;;;;;;17.15;100.00;101462.09;5036109;28;20079;-66
2023/08/24 05:25:51;;;;;;;31.45;25.25;;;;;;;17.20;100.00;101459.09;5032713;28;20044;-66
2023/08/24 05:28:16;;;;;;;32.38;26.00;;;;;;;17.23;100.00;101455.63;5032111;28;20124;-66
2023/08/24 05:30:42;;;;;;;31.35;25.15;;;;;;;17.28;100.00;101457.41;5032086;28;20025;-66
2023/08/24 05:33:07;;;;;;;32.17;26.80;;;;;;;17.30;100.00;101453.13;5048956;28;20036;-66
2023/08/24 05:35:32;;;;;;;30.08;25.52;;;;;;;17.33;100.00;101446.06;5031919;28;20485;-66
2023/08/24 05:37:57;;;;;;;31.50;26.40;;;;;;;17.40;100.00;101446.34;5031985;28;20029;-66
2023/08/24 05:40:23;;;;;;;30.55;25.00;;;;;;;17.44;100.00;101438.91;5044032;28;20033;-66
2023/08/24 05:42:48;;;;;;;29.27;24.90;;;;;;;17.51;100.00;101437.56;5031983;28;20033;-66
2023/08/24 05:45:13;;;;;;;32.95;25.80;;;;;;;17.54;100.00;101443.28;5034641;28;20037;-66
2023/08/24 05:47:39;;;;;;;30.63;24.65;;;;;;;17.61;100.00;101440.75;5031668;28;20029;-66
2023/08/24 05:50:05;;;;;;;31.27;27.33;;;;;;;17.63;100.00;101429.22;5036380;28;20433;-66
2023/08/24 05:52:30;;;;;;;32.45;26.20;;;;;;;17.70;100.00;101432.31;5039805;28;20131;-66
2023/08/24 05:54:55;;;;;;;30.70;25.38;;;;;;;17.67;100.00;101423.75;5040386;28;20030;-66
2023/08/24 05:57:21;;;;;;;28.60;23.98;;;;;;;17.77;100.00;101423.34;5034278;28;20505;-66
2023/08/24 05:59:47;;;;;;;29.23;23.63;;;;;;;17.83;100.00;101413.63;5031347;28;20115;-66
2023/08/24 06:02:12;;;;;;;30.77;25.30;;;;;;;17.87;100.00;101411.75;5041478;28;20043;-66
2023/08/24 06:04:37;;;;;;;30.85;26.77;;;;;;;17.93;100.00;101409.56;5046803;28;20112;-66
2023/08/24 06:07:04;;;;;;;32.25;26.73;;;;;;;17.98;100.00;101394.56;5031306;28;20358;-66
2023/08/24 06:09:30;;;;;;;32.58;26.77;;;;;;;18.00;100.00;101395.84;5046956;28;20373;-66
2023/08/24 06:11:55;;;;;;;35.85;28.50;;;;;;;18.04;100.00;101384.81;5035387;28;20124;-66
2023/08/24 06:14:20;;;;;;;33.45;27.63;;;;;;;18.11;100.00;101381.44;5031072;28;20048;-66
2023/08/24 06:16:46;;;;;;;32.58;26.73;;;;;;;18.16;100.00;101370.84;5040030;28;20113;-66
2023/08/24 06:19:11;;;;;;;30.77;26.38;;;;;;;18.21;100.00;101370.63;5045104;28;20029;-66
2023/08/24 06:21:36;;;;;;;33.00;27.83;;;;;;;18.23;100.00;101370.28;5040983;28;20029;-66
2023/08/24 06:24:03;;;;;;;31.95;27.25;;;;;;;18.29;100.00;101362.47;5031226;28;20103;-66
2023/08/24 06:26:29;;;;;;;33.42;28.38;;;;;;;18.29;100.00;101368.88;5044360;28;20024;-66
2023/08/24 06:28:55;;;;;;;34.05;27.77;;;;;;;18.34;100.00;101377.06;5039922;28;20071;-66
2023/08/24 06:31:21;;;;;;;31.27;27.90;;;;;;;18.38;100.00;101391.19;5042031;28;20135;-66
2023/08/24 06:33:46;;;;;;;33.78;28.30;;;;;;;18.41;100.00;101387.72;5039131;28;20131;-66
2023/08/24 06:36:12;;;;;;;31.27;27.52;;;;;;;18.48;100.00;101410.38;5031164;28;20087;-66
2023/08/24 06:38:37;;;;;;;32.47;26.45;;;;;;;18.52;100.00;101397.28;5030654;28;20036;-66
2023/08/24 06:41:02;;;;;;;31.90;27.55;;;;;;;18.58;100.00;101397.09;5046077;28;20037;-66
2023/08/24 06:43:28;;;;;;;32.83;28.15;;;;;;;18.66;100.00;101396.16;5033558;28;20064;-66
2023/08/24 06:45:57;;;;;;;33.53;28.02;;;;;;;18.70;100.00;101397.09;5030936;28;20120;-66
2023/08/24 06:48:22;;;;;;;33.55;29.45;;;;;;;18.80;100.00;101396.63;5030625;28;20033;-66
2023/08/24 06:50:48;;;;;;;31.00;27.63;;;;;;;18.92;100.00;101390.22;5039811;28;20106;-64
2023/08/24 06:53:14;;;;;;;31.92;28.50;;;;;;;19.00;100.00;101378.09;5030695;28;20041;-66
2023/08/24 06:55:40;;;;;;;31.65;26.92;;;;;;;19.08;100.00;101372.72;5039540;28;20045;-66
2023/08/24 06:58:05;;;;;;;32.45;28.63;;;;;;;19.13;100.00;101390.13;5029990;28;20107;-67
2023/08/24 07:00:31;;;;;;;31.10;27.48;;;;;;;19.18;100.00;101389.06;5030554;28;20392;-66
2023/08/24 07:02:57;;;;;;;33.53;28.63;;;;;;;19.27;100.00;101386.16;5050353;28;20136;-67
2023/08/24 07:05:22;;;;;;;33.88;27.77;;;;;;;19.41;100.00;101375.34;5044612;28;20017;-66
2023/08/24 07:07:49;;;;;;;33.42;28.42;;;;;;;19.54;100.00;101383.75;5036292;28;20132;-66
2023/08/24 07:10:15;;;;;;;31.73;28.33;;;;;;;19.66;100.00;101380.88;5046926;28;20104;-66
2023/08/24 07:12:41;;;;;;;31.30;28.00;;;;;;;19.71;100.00;101382.63;5040187;28;20032;-66
2023/08/24 07:15:07;;;;;;;30.48;27.20;;;;;;;19.80;100.00;101372.06;5046196;28;20496;-67
2023/08/24 07:17:32;;;;;;;30.25;26.58;;;;;;;19.88;100.00;101364.72;5034501;28;20037;-67
2023/08/24 07:19:58;;;;;;;32.00;27.00;;;;;;;20.00;100.00;101373.09;5027784;28;20029;-67
2023/08/24 07:22:23;;;;;;;32.20;26.42;;;;;;;20.12;100.00;101374.19;5039075;28;20060;-67
2023/08/24 07:24:52;;;;;;;31.08;27.00;;;;;;;20.18;100.00;101370.75;5035980;28;20035;-70
2023/08/24 07:27:18;;;;;;;29.23;25.52;;;;;;;20.22;100.00;101357.63;5033563;28;20029;-68
2023/08/24 07:29:43;;;;;;;30.80;27.00;;;;;;;20.29;100.00;101359.00;5039532;28;20086;-68
2023/08/24 07:32:08;;;;;;;29.33;25.70;;;;;;;20.33;100.00;101359.91;5053548;28;20142;-68
2023/08/24 07:34:34;;;;;;;28.00;24.67;;;;;;;20.44;100.00;101357.38;5041011;28;20120;-67
2023/08/24 07:36:59;;;;;;;29.92;25.08;;;;;;;20.52;100.00;101357.22;5047358;28;20468;-67
2023/08/24 07:39:25;;;;;;;29.27;24.77;;;;;;;20.65;100.00;101362.72;5041669;28;20047;-68
2023/08/24 07:41:51;;;;;;;28.20;24.60;;;;;;;20.74;100.00;101357.75;5040892;28;20049;-68
2023/08/24 07:44:16;;;;;;;29.67;25.33;;;;;;;20.87;100.00;101359.28;5037829;28;20026;-67
2023/08/24 07:46:42;;;;;;;30.20;24.75;;;;;;;20.99;98.83;101358.38;5039238;28;20388;-68
2023/08/24 07:49:08;;;;;;;28.85;23.52;;;;;;;21.11;97.66;101351.81;5052651;28;20491;-67
2023/08/24 07:51:33;;;;;;;27.13;22.65;;;;;;;21.19;96.63;101352.78;5046528;28;20040;-67
2023/08/24 07:54:00;;;;;;;27.95;23.15;;;;;;;21.27;96.68;101346.13;5040995;28;20026;-67
2023/08/24 07:56:25;;;;;;;28.80;23.77;;;;;;;21.42;95.89;101343.66;5034785;28;20025;-67
2023/08/24 07:58:50;;;;;;;26.75;23.17;;;;;;;21.51;95.61;101341.44;5043769;28;20139;-67
2023/08/24 08:01:15;;;;;;;27.33;22.85;;;;;;;21.62;95.09;101342.50;5038172;28;20061;-67
2023/08/24 08:03:41;;;;;;;28.52;23.38;;;;;;;21.67;93.60;101341.41;5036632;28;20041;-67
2023/08/24 08:06:06;;;;;;;27.52;23.33;;;;;;;21.76;93.34;101358.06;5049500;28;20036;-67
2023/08/24 08:08:31;;;;;;;26.98;22.23;;;;;;;21.83;92.94;101355.38;5052332;28;20043;-67
2023/08/24 08:10:59;;;;;;;28.63;23.20;;;;;;;21.95;93.44;101362.88;5052128;28;20033;-67
2023/08/24 08:13:25;;;;;;;27.55;23.30;;;;;;;22.07;92.22;101353.44;5051909;28;20111;-67
2023/08/24 08:15:51;;;;;;;31.27;27.88;;;;;;;22.15;91.63;101355.19;5043280;28;20060;-67
2023/08/24 08:18:16;;;;;;;30.52;24.90;;;;;;;22.28;92.05;101355.84;5049029;28;20036;-69
2023/08/24 08:20:41;;;;;;;26.73;23.17;;;;;;;22.43;91.48;101360.56;5052074;28;20025;-68
2023/08/24 08:23:06;;;;;;;27.85;23.45;;;;;;;22.52;89.69;101354.69;5052157;28;20032;-68
2023/08/24 08:25:32;;;;;;;26.73;22.30;;;;;;;22.63;89.44;101354.03;5050161;28;20044;-69
2023/08/24 08:27:57;;;;;;;26.92;23.20;;;;;;;22.75;88.60;101354.66;5051888;28;20600;-69
2023/08/24 08:30:22;;;;;;;27.15;22.88;;;;;;;22.90;87.83;101358.53;5051763;28;20021;-69
2023/08/24 08:32:48;;;;;;;29.08;24.08;;;;;;;23.03;87.16;101353.47;5051502;28;20078;-68
2023/08/24 08:35:14;;;;;;;28.00;23.60;;;;;;;23.15;88.41;101338.31;5051433;28;20108;-68
2023/08/24 08:37:39;;;;;;;28.85;23.25;;;;;;;23.26;86.31;101330.06;5051769;28;20040;-68
2023/08/24 08:40:09;;;;;;;28.48;24.20;;;;;;;23.38;86.24;101325.38;5051775;28;20028;-69
2023/08/24 08:42:36;;;;;;;27.63;23.50;;;;;;;23.35;86.01;101310.81;5052024;28;20485;-69
2023/08/24 08:45:04;;;;;;;27.60;23.65;;;;;;;23.45;87.51;101312.13;5052895;28;20036;-69
2023/08/24 08:47:29;;;;;;;27.95;24.35;;;;;;;23.52;86.49;101303.75;5051598;28;20028;-69
2023/08/24 08:49:55;;;;;;;28.80;23.08;;;;;;;23.56;86.25;101291.69;5051396;28;20025;-69
2023/08/24 08:52:20;;;;;;;28.92;23.98;;;;;;;23.56;84.36;101286.88;5051601;28;20480;-69
2023/08/24 08:54:45;;;;;;;28.20;23.67;;;;;;;23.67;85.32;101270.03;5051783;28;20048;-69
2023/08/24 08:57:12;;;;;;;27.75;23.23;;;;;;;23.75;85.78;101260.44;5051461;28;20453;-69
2023/08/24 08:59:38;;;;;;;26.58;23.33;;;;;;;23.85;84.91;101258.94;5051340;28;20457;-69
2023/08/24 09:02:05;;;;;;;27.33;23.13;;;;;;;24.02;84.67;101268.81;5051086;28;20112;-69
2023/08/24 09:04:32;;;;;;;29.17;23.70;;;;;;;24.02;84.26;101256.72;5050931;28;20189;-68
2023/08/24 09:06:58;;;;;;;27.17;22.70;;;;;;;24.10;85.13;101247.09;5051096;28;20032;-69
2023/08/24 09:09:25;;;;;;;26.83;22.65;;;;;;;24.18;84.99;101245.94;5051230;28;20047;-69
2023/08/24 09:11:51;;;;;;;28.63;23.27;;;;;;;24.27;83.71;101245.63;5051241;28;20032;-68
2023/08/24 09:14:16;;;;;;;27.58;23.52;;;;;;;24.33;84.63;101229.09;5037076;28;20065;-68
2023/08/24 09:16:42;;;;;;;27.55;23.15;;;;;;;24.42;83.53;101223.91;5035411;28;20029;-68
2023/08/24 09:19:11;;;;;;;27.20;23.58;;;;;;;24.50;83.64;101221.94;5039399;28;20032;-69
2023/08/24 09:21:41;;;;;;;27.88;23.98;;;;;;;24.53;82.54;101209.84;5040649;28;20066;-69
2023/08/24 09:24:07;;;;;;;26.88;23.88;;;;;;;24.64;83.92;101198.59;5038683;28;20128;-69
2023/08/24 09:26:35;;;;;;;28.25;22.90;;;;;;;24.73;82.19;101194.25;5042324;28;20049;-68
2023/08/24 09:29:12;;;;;;;27.90;22.95;;;;;;;24.79;81.81;101185.38;5038415;28;20418;-69
2023/08/24 09:31:38;;;;;;;26.52;22.73;;;;;;;24.84;81.60;101182.97;5040238;28;20064;-69
2023/08/24 09:34:04;;;;;;;27.30;24.17;;;;;;;24.97;81.32;101193.97;5036649;28;20133;-68
2023/08/24 09:36:37;;;;;;;28.52;23.90;;;;;;;25.09;81.16;101193.59;5039648;28;20484;-68
2023/08/24 09:39:07;;;;;;;28.38;22.90;;;;;;;25.13;81.07;101205.75;5051124;28;20035;-69
2023/08/24 09:41:47;;;;;;;26.33;22.50;;;;;;;25.25;80.97;101213.06;5049558;28;20043;-69
2023/08/24 09:44:13;;;;;;;28.25;25.25;;;;;;;25.32;78.94;101218.72;5043589;28;20033;-70
2023/08/24 09:46:40;;;;;;;28.50;23.70;;;;;;;25.34;78.24;101221.97;5036801;28;20021;-69
2023/08/24 09:49:07;;;;;;;29.90;23.40;;;;;;;25.35;78.63;101243.44;5033912;28;20057;-69
2023/08/24 09:51:34;;;;;;;27.23;22.90;;;;;;;25.44;79.86;101256.44;5034329;28;20353;-69
2023/08/24 09:54:06;;;;;;;26.92;23.23;;;;;;;25.45;77.69;101244.72;5030967;28;20055;-69
2023/08/24 09:56:35;;;;;;;26.45;22.08;;;;;;;25.52;78.44;101249.56;5032565;28;20026;-69
2023/08/24 09:59:10;;;;;;;24.83;21.42;;;;;;;25.64;78.94;101242.75;5030529;28;20034;-68
2023/08/24 10:01:37;;;;;;;26.17;22.08;;;;;;;25.74;78.21;101246.81;5030688;28;20025;-68
2023/08/24 10:04:05;;;;;;;27.85;21.48;;;;;;;25.82;78.30;101239.94;5030611;28;20087;-68
2023/08/24 10:06:32;;;;;;;26.45;21.80;;;;;;;25.83;78.12;101241.56;5029159;28;20060;-68
2023/08/24 10:09:04;;;;;;;27.73;21.90;;;;;;;25.78;78.54;101242.75;5028819;28;20497;-69
2023/08/24 10:11:33;;;;;;;27.27;22.05;;;;;;;25.73;79.39;101254.50;5030656;28;20029;-69
2023/08/24 10:14:10;;;;;;;26.73;21.27;;;;;;;25.77;80.10;101252.47;5044657;28;20521;-69
2023/08/24 10:16:36;;;;;;;28.33;21.23;;;;;;;25.70;78.49;101250.44;5050002;28;20025;-69
2023/08/24 10:19:03;;;;;;;26.30;21.83;;;;;;;25.62;78.44;101256.50;5050136;28;20114;-69
2023/08/24 10:21:28;;;;;;;26.35;21.33;;;;;;;25.61;78.79;101252.03;5050362;28;20017;-69
2023/08/24 10:23:56;;;;;;;26.35;22.02;;;;;;;25.54;79.64;101252.81;5050104;28;20044;-69
2023/08/24 10:26:23;;;;;;;26.88;21.10;;;;;;;25.57;80.65;101254.03;5050284;28;20044;-69
2023/08/24 10:28:50;;;;;;;27.10;21.60;;;;;;;25.53;80.35;101240.69;5050575;28;20029;-69
2023/08/24 10:31:16;;;;;;;25.77;20.65;;;;;;;25.51;79.53;101231.78;5050289;28;20029;-68
2023/08/24 10:33:44;;;;;;;25.05;20.05;;;;;;;25.52;80.15;101238.25;5049868;28;20031;-69
2023/08/24 10:36:10;;;;;;;26.08;20.60;;;;;;;25.53;80.65;101237.03;5050133;28;20025;-69
2023/08/24 10:38:42;;;;;;;25.27;18.75;;;;;;;25.50;81.64;101237.88;5048674;28;20036;-68
2023/08/24 10:41:07;;;;;;;24.05;18.98;;;;;;;25.52;81.18;101243.91;5050575;28;20033;-69
2023/08/24 10:43:40;;;;;;;24.52;19.65;;;;;;;25.41;80.16;101246.72;5050291;28;20033;-70
2023/08/24 10:46:13;;;;;;;24.48;19.52;;;;;;;25.35;80.60;101251.94;5040827;28;20381;-70
2023/08/24 10:48:41;;;;;;;25.13;19.77;;;;;;;25.27;81.43;101253.13;5039958;28;20037;-71
2023/08/24 10:51:18;;;;;;;24.73;19.23;;;;;;;25.18;82.28;101253.47;5040304;28;20029;-72
2023/08/24 10:53:45;;;;;;;27.10;19.83;;;;;;;25.10;83.24;101262.34;5034262;28;20029;-71
2023/08/24 10:56:15;;;;;;;26.42;20.80;;;;;;;25.03;83.63;101263.91;5035174;28;20037;-71
2023/08/24 10:58:41;;;;;;;27.65;20.30;;;;;;;25.00;84.78;101263.91;5045019;28;20092;-72
2023/08/24 11:01:06;;;;;;;26.25;20.77;;;;;;;25.04;85.14;101262.69;5042269;28;20026;-71